CST,Max TemperatureF,Mean TemperatureF,Min TemperatureF,Max Dew PointF,MeanDew PointF,Min DewpointF,Max Humidity, Mean Humidity, Min Humidity, Max Sea Level PressureIn, Mean Sea Level PressureIn, Min Sea Level PressureIn, Max VisibilityMiles, Mean VisibilityMiles, Min VisibilityMiles, Max Wind SpeedMPH, Mean Wind SpeedMPH, Max Gust SpeedMPH,PrecipitationIn, CloudCover, Events, WindDirDegrees
2011-12-1,33,22,10,30,15,5,93,77,50,30.53,30.42,30.15,10,10,10,23,15,29,0.00,2,,331
2011-12-2,37,24,12,18,11,7,86,59,30,30.39,30.11,29.93,10,10,10,24,11,34,0.00,0,,184
2011-12-3,33,26,19,25,19,16,100,73,59,30.09,30.02,29.95,10,10,10,17,8,20,0.00,3,,290
2011-12-4,24,22,19,18,15,12,80,75,64,30.27,30.14,30.03,10,10,10,20,11,18,0.00,8,,336
2011-12-5,17,10,1,14,6,-2,86,72,53,30.57,30.49,30.40,10,10,7,18,11,24,0.00,4,Snow,336
2011-12-6,26,12,-2,9,3,-6,100,73,43,30.48,30.22,29.93,10,10,10,15,4,20,0.00,0,,189
2011-12-7,33,24,15,21,17,9,80,68,41,30.08,30.01,29.88,10,10,10,15,8,22,0.00,2,,287
2011-12-8,23,14,5,16,3,-4,86,60,33,30.22,30.17,30.11,10,10,10,24,11,29,0.00,1,,283
2011-12-9,17,6,-4,0,-5,-9,85,63,30,30.36,30.29,30.21,10,10,7,15,8,20,0.00,0,,279
2011-12-10,42,25,8,19,12,0,79,60,39,30.30,30.14,30.06,10,10,10,13,8,16,0.00,1,,212
2011-12-11,48,39,30,28,24,19,93,62,32,29.99,29.93,29.88,10,9,5,21,9,28,0.00,0,,192
2011-12-12,33,27,21,28,22,16,93,82,74,30.26,30.14,30.01,10,8,4,12,5,,0.00,8,,337
2011-12-13,33,30,28,30,27,25,100,86,75,30.30,30.22,30.08,10,6,0,10,4,,0.00,8,Fog,137
2011-12-14,37,35,33,37,36,32,100,100,93,30.01,29.79,29.66,7,2,0,14,5,,0.00,8,Fog-Snow,127
2011-12-15,30,21,12,27,20,10,93,76,59,30.32,30.05,29.80,10,10,5,29,19,37,0.00,6,,310
2011-12-16,24,17,10,21,16,9,100,90,80,30.40,30.34,30.28,10,10,2,8,2,,0.00,5,Snow,83
2011-12-17,37,28,19,25,21,18,100,78,48,30.28,30.16,30.11,10,9,4,16,6,22,0.00,2,,245
2011-12-18,57,40,23,28,24,19,93,63,25,30.06,29.78,29.65,10,10,10,21,8,26,0.00,0,,226
2011-12-19,33,26,19,28,21,16,87,75,56,30.27,30.14,29.86,10,10,10,25,16,32,0.00,1,,341
2011-12-20,39,22,6,21,13,3,100,69,31,30.24,29.90,29.63,10,10,10,15,5,21,0.00,0,,184
2011-12-21,37,26,15,28,19,12,93,76,60,30.13,29.77,29.59,10,10,7,20,6,24,0.00,3,Snow,348
2011-12-22,33,25,17,18,15,12,86,70,41,30.36,30.28,30.15,10,10,10,12,7,18,0.00,3,,306
2011-12-23,39,28,15,21,17,12,93,66,45,30.21,30.06,29.98,10,10,10,18,11,23,0.00,3,,259
2011-12-24,46,29,12,23,18,10,100,64,29,30.10,30.06,30.03,10,10,10,18,8,26,0.00,0,,246
2011-12-25,42,33,24,25,21,19,86,59,39,30.33,30.23,30.08,10,10,10,22,14,28,0.00,0,,290
2011-12-26,50,39,28,30,21,18,64,45,28,30.02,29.75,29.66,10,10,10,29,16,44,0.00,1,,232
2011-12-27,39,27,15,34,17,10,93,80,63,30.07,29.98,29.79,10,10,10,29,17,39,0.00,4,Rain,336
2011-12-28,42,30,17,30,18,12,80,67,46,29.96,29.76,29.53,10,10,10,10,6,,0.01,2,Rain,173
2011-12-29,37,34,30,34,29,27,100,85,70,29.67,29.58,29.43,10,8,2,22,10,30,0.00,5,Snow,306
2011-12-30,33,32,30,34,30,28,100,98,93,29.82,29.67,29.54,7,4,0,13,6,,0.08,8,Fog-Snow,131
2011-12-31,37,34,30,34,32,28,100,94,81,29.83,29.62,29.50,10,6,3,21,9,31,0.02,7,,111